Latest Weather Observations for Strathalbyn

IDS60801

Issued at 4:05 am CST Wednesday 30 July 2014 (issued every 30 minutes, with the page automatically refreshed every 10 minutes)

About weather observations | Map of weather stations | Latest weather observations for SA | Other Formats
Station Details ID: 024580 Name: STRATHALBYN RACECOURSE Lat: -35.28 Lon: 138.89 Height: 58.0 m
Data from the previous 72 hours. | See also: Recent months at Strathalbyn
Date/Time
CST
Temp
°C
App
Temp
°C
Dew
Point
Rel
Hum
%
Delta-T
°C
Wind Press
QNH
hPa
Press
MSL
hPa
Rain
since 9 am
mm
Dir
 
Spd
km/h
Gust
km/h
Spd
kts
Gust
kts
30/04:00am 14.1 8.3 9.5 74 2.4 WNW 30 43 16 23 1015.5 - 1.2
30/03:30am 14.5 8.7 9.5 72 2.6 W 30 50 16 27 1016.0 - 1.2
30/03:00am 14.3 8.1 9.9 75 2.3 WNW 33 52 18 28 1015.8 1015.9 1.2
30/02:31am 14.4 7.9 10.4 77 2.1 WNW 35 56 19 30 1015.8 - 1.2
30/02:30am 14.2 8.0 10.2 77 2.1 WNW 33 48 18 26 1015.9 - 1.2
30/02:05am 14.1 7.8 9.7 75 2.3 WNW 33 52 18 28 1016.0 - 1.2
30/02:00am 14.3 7.7 9.9 75 2.3 WNW 35 52 19 28 1016.0 - 1.2
30/01:51am 14.2 8.1 9.8 75 2.3 WNW 32 50 17 27 1016.0 - 1.2
30/01:30am 14.4 8.2 10.0 75 2.3 WNW 33 46 18 25 1016.3 - 1.2
30/01:00am 14.6 8.4 10.2 75 2.3 WNW 33 46 18 25 1016.5 - 1.2
30/12:30am 14.6 8.7 10.4 76 2.2 WNW 32 44 17 24 1016.6 - 1.2
30/12:00am 14.5 9.3 10.3 76 2.2 WNW 28 41 15 22 1016.6 1016.7 1.2
 
Date/Time
CST
Temp
°C
App
Temp
°C
Dew
Point
Rel
Hum
%
Delta-T
°C
Wind Press
QNH
hPa
Press
MSL
hPa
Rain
since 9 am
mm
Dir
 
Spd
km/h
Gust
km/h
Spd
kts
Gust
kts
29/11:30pm 14.2 8.6 10.2 77 2.1 WNW 30 44 16 24 1016.7 - 1.2
29/11:00pm 14.4 9.7 10.8 79 1.9 W 26 39 14 21 1017.1 - 1.2
29/10:30pm 14.5 8.6 11.1 80 1.8 WNW 33 52 18 28 1016.6 - 1.0
29/10:17pm 14.6 8.9 11.2 80 1.8 WNW 32 50 17 27 1016.6 - 1.0
29/10:00pm 13.9 10.5 11.4 85 1.3 WNW 20 30 11 16 1016.8 - 1.0
29/09:30pm 13.8 9.7 11.3 85 1.3 W 24 37 13 20 1016.9 - 0.8
29/09:00pm 14.9 9.5 10.9 77 2.1 W 30 50 16 27 1016.5 1016.6 0.4
29/08:34pm 14.8 9.4 11.0 78 2.0 WNW 30 50 16 27 1016.3 - 0.4
29/08:30pm 14.8 9.4 11.0 78 2.0 WNW 30 44 16 24 1016.3 - 0.4
29/08:00pm 14.6 9.2 11.0 79 1.9 WNW 30 41 16 22 1016.1 - 0.4
29/07:30pm 14.4 9.7 10.8 79 1.9 W 26 35 14 19 1015.9 - 0.4
29/07:05pm 14.0 8.6 10.8 81 1.7 W 30 48 16 26 1015.8 - 0.4
29/07:00pm 14.1 8.3 10.9 81 1.7 W 32 48 17 26 1015.8 - 0.4
29/06:30pm 14.4 9.2 11.7 84 1.5 W 30 44 16 24 1015.5 - 0.4
29/06:00pm 14.3 9.5 11.6 84 1.4 WNW 28 44 15 24 1015.4 1015.5 0.0
29/05:30pm 14.7 8.8 11.3 80 1.8 WNW 33 52 18 28 1014.8 - 0.0
29/05:01pm 15.0 9.7 11.2 78 2.0 WNW 30 48 16 26 1014.8 - 0.0
29/05:00pm 15.0 9.3 11.2 78 2.0 WNW 32 48 17 26 1014.8 - 0.0
29/04:50pm 15.3 10.4 11.3 77 2.1 W 28 46 15 25 1014.7 - 0.0
29/04:30pm 15.2 10.1 11.8 80 1.8 W 30 44 16 24 1014.7 - 0.0
29/04:05pm 15.3 9.7 11.5 78 2.0 W 32 52 17 28 1014.4 - 0.0
29/04:00pm 15.2 10.0 11.6 79 1.9 WNW 30 43 16 23 1014.4 - 0.0
29/03:30pm 15.5 10.3 11.7 78 2.1 WNW 30 44 16 24 1014.1 - 0.0
29/03:11pm 16.1 10.3 11.5 74 2.5 WNW 33 54 18 29 1013.9 - 0.0
29/03:00pm 15.7 10.0 11.3 75 2.4 WNW 32 46 17 25 1014.0 1014.0 0.0
29/02:30pm 15.8 9.8 10.8 72 2.7 WNW 33 52 18 28 1013.7 - 0.0
29/02:00pm 16.8 10.5 11.1 69 3.1 WNW 35 54 19 29 1013.5 - 0.0
29/01:30pm 16.5 10.1 10.6 68 3.1 WNW 35 54 19 29 1013.3 - 0.0
29/01:00pm 16.6 9.8 10.7 68 3.2 WNW 37 65 20 35 1013.1 - 0.0
29/12:30pm 15.7 9.0 11.1 74 2.5 WNW 37 69 20 37 1013.4 - 0.0
29/12:00pm 16.2 8.7 10.7 70 2.9 WNW 41 72 22 39 1013.5 1013.5 0.0
29/11:30am 15.9 7.8 10.7 71 2.8 WNW 44 70 24 38 1014.1 - 0.0
29/11:02am 16.0 9.3 9.7 66 3.3 WNW 35 57 19 31 1014.0 - 0.0
29/11:00am 16.0 9.4 9.9 67 3.2 WNW 35 50 19 27 1014.0 - 0.0
29/10:30am 16.2 9.6 10.1 67 3.2 WNW 35 54 19 29 1014.1 - 0.0
29/10:00am 15.8 8.8 10.1 69 3.0 WNW 37 56 20 30 1014.1 - 0.0
29/09:30am 15.1 8.9 9.9 71 2.7 WNW 33 54 18 29 1014.0 - 0.0
29/09:00am 14.6 8.5 9.8 73 2.5 WNW 32 59 17 32 1014.2 1014.3 0.0
29/08:39am 14.2 7.2 9.8 75 2.3 WNW 37 59 20 32 1013.9 - 0.0
29/08:30am 14.3 8.7 10.1 76 2.2 WNW 30 46 16 25 1013.9 - 0.0
29/08:02am 13.6 6.9 9.6 77 2.1 WNW 35 61 19 33 1013.3 - 0.0
29/08:00am 13.5 6.8 9.7 78 2.0 WNW 35 50 19 27 1013.2 - 0.0
29/07:30am 13.3 6.2 9.4 77 2.0 WNW 37 59 20 32 1013.3 - 0.0
29/07:07am 13.2 6.4 9.1 76 2.1 WNW 35 54 19 29 1013.5 - 0.0
29/07:00am 13.2 6.0 9.1 76 2.1 WNW 37 54 20 29 1013.2 - 0.0
29/06:40am 12.9 7.0 9.0 77 2.0 WNW 30 48 16 26 1013.4 - 0.0
29/06:30am 13.1 6.6 9.0 76 2.1 WNW 33 48 18 26 1013.4 - 0.0
29/06:22am 12.9 7.4 9.0 77 2.0 WNW 28 48 15 26 1013.3 - 0.0
29/06:00am 12.9 6.9 8.6 75 2.2 NW 30 46 16 25 1013.1 1013.1 0.0
29/05:30am 13.1 5.8 8.8 75 2.2 WNW 37 56 20 30 1013.6 - 0.0
29/05:00am 12.7 6.6 8.4 75 2.1 WNW 30 50 16 27 1013.3 - 0.0
29/04:51am 12.8 6.3 8.3 74 2.2 WNW 32 50 17 27 1013.2 - 0.0
29/04:30am 13.0 6.3 8.3 73 2.3 WNW 33 48 18 26 1012.7 - 0.0
29/04:02am 13.2 5.7 8.1 71 2.5 WNW 37 56 20 30 1012.7 - 0.0
29/04:00am 13.3 5.5 8.2 71 2.5 WNW 39 56 21 30 1012.6 - 0.0
29/03:30am 13.4 6.3 8.0 70 2.7 WNW 35 57 19 31 1012.6 - 0.0
29/03:00am 13.5 6.4 7.9 69 2.8 WNW 35 57 19 31 1012.2 1012.2 0.0
29/02:30am 13.8 7.2 7.8 67 3.0 WNW 32 54 17 29 1012.6 - 0.0
29/02:15am 13.8 7.2 7.8 67 3.0 WNW 32 50 17 27 1012.8 - 0.0
29/02:00am 13.8 7.9 7.6 66 3.1 WNW 28 43 15 23 1013.0 - 0.0
29/01:42am 13.8 7.9 7.3 65 3.2 WNW 28 46 15 25 1013.0 - 0.0
29/01:30am 13.8 9.3 7.1 64 3.3 WNW 20 33 11 18 1013.3 - 0.0
29/01:00am 14.0 9.1 7.1 63 3.4 WNW 22 39 12 21 1013.7 - 0.0
29/12:30am 13.7 9.3 6.6 62 3.4 WNW 19 35 10 19 1014.0 - 0.0
29/12:00am 14.1 9.4 6.2 59 3.8 WNW 20 37 11 20 1014.5 1014.6 0.0
 
Date/Time
CST
Temp
°C
App
Temp
°C
Dew
Point
Rel
Hum
%
Delta-T
°C
Wind Press
QNH
hPa
Press
MSL
hPa
Rain
since 9 am
mm
Dir
 
Spd
km/h
Gust
km/h
Spd
kts
Gust
kts
28/11:30pm 14.2 8.0 6.1 58 3.9 WNW 28 44 15 24 1014.4 - 0.0
28/11:00pm 13.7 9.1 6.6 62 3.4 WNW 20 32 11 17 1014.8 - 0.0
28/10:30pm 13.7 8.7 6.6 62 3.4 WNW 22 37 12 20 1015.0 - 0.0
28/10:00pm 14.1 9.1 6.5 60 3.7 WNW 22 35 12 19 1015.1 - 0.0
28/09:43pm 14.6 8.5 6.4 58 4.0 WNW 28 48 15 26 1015.1 - 0.0
28/09:30pm 14.2 9.2 6.3 59 3.8 WNW 22 37 12 20 1015.1 - 0.0
28/09:00pm 14.5 9.9 6.6 59 3.8 WNW 20 35 11 19 1015.2 1015.3 0.0
28/08:30pm 13.4 10.4 7.6 68 2.9 WNW 13 20 7 11 1015.2 - 0.0
28/08:00pm 13.5 10.2 7.9 69 2.8 WNW 15 24 8 13 1015.0 - 0.0
28/07:30pm 13.7 9.7 8.1 69 2.8 WNW 19 28 10 15 1015.0 - 0.0
28/07:00pm 13.6 10.0 8.2 70 2.7 NW 17 28 9 15 1014.8 - 0.0
28/06:30pm 13.2 10.8 8.7 74 2.3 WNW 11 24 6 13 1014.9 - 0.0
28/06:00pm 14.0 11.0 9.2 73 2.4 NW 15 28 8 15 1014.5 1014.6 0.0
28/05:30pm 14.0 10.0 9.2 73 2.5 NW 20 37 11 20 1014.7 - 0.0
28/05:00pm 14.3 9.5 8.7 69 2.8 NW 24 37 13 20 1014.5 - 0.0
28/04:30pm 15.2 10.7 8.4 64 3.4 WNW 22 33 12 18 1014.0 - 0.0
28/04:00pm 15.6 10.7 8.6 63 3.6 NW 24 33 13 18 1013.8 - 0.0
28/03:30pm 15.6 9.4 9.5 67 3.2 NW 32 46 17 25 1014.0 - 0.0
28/03:00pm 16.0 10.2 9.4 65 3.4 WNW 30 39 16 21 1014.3 1014.4 0.0
28/02:30pm 16.3 11.9 10.4 68 3.1 WNW 24 39 13 21 1014.3 - 0.0
28/02:00pm 16.1 11.2 9.8 66 3.3 WNW 26 41 14 22 1014.6 - 0.0
28/01:30pm 16.1 12.0 8.8 62 3.7 WNW 20 32 11 17 1015.0 - 0.0
28/01:02pm 15.6 10.1 9.1 65 3.3 WNW 28 46 15 25 1015.3 - 0.0
28/01:00pm 15.8 10.0 9.5 66 3.3 WNW 30 46 16 25 1015.3 - 0.0
28/12:56pm 15.7 10.1 8.7 63 3.6 WNW 28 46 15 25 1015.4 - 0.0
28/12:30pm 15.5 11.4 10.1 70 2.8 WNW 22 37 12 20 1016.0 - 0.0
28/12:00pm 14.9 12.7 10.7 76 2.2 NW 13 20 7 11 1016.2 1016.3 0.0
28/11:30am 14.7 12.0 10.5 76 2.2 NW 15 24 8 13 1016.6 - 0.0
28/11:00am 14.7 11.3 10.5 76 2.2 WNW 19 26 10 14 1017.0 - 0.0
28/10:30am 14.6 11.2 10.4 76 2.2 WNW 19 26 10 14 1017.4 - 0.0
28/10:00am 13.6 12.1 10.4 81 1.7 WNW 9 13 5 7 1017.6 - 0.0
28/09:30am 11.5 10.6 9.4 87 1.1 NNW 4 7 2 4 1017.6 - 0.0
28/09:00am 10.8 10.1 8.7 87 1.0 NNW 2 6 1 3 1017.4 1017.5 0.0
28/08:30am 10.3 8.2 8.4 88 0.9 NNW 9 9 5 5 1017.1 - 0.0
28/08:00am 10.0 7.8 7.8 86 1.1 NNW 9 11 5 6 1017.2 - 0.0
28/07:30am 10.8 8.3 8.2 84 1.3 NNW 11 13 6 7 1016.9 - 0.0
28/07:00am 11.0 8.5 8.0 82 1.5 NW 11 15 6 8 1016.5 - 0.0
28/06:30am 11.5 9.0 8.4 81 1.5 NW 11 15 6 8 1016.4 - 0.0
28/06:00am 12.2 9.4 8.7 79 1.7 WNW 13 19 7 10 1016.4 1016.5 0.0
28/05:30am 9.2 7.1 6.6 84 1.2 NW 7 9 4 5 1016.3 - 0.0
28/05:00am 9.2 6.9 5.9 80 1.5 NNW 7 11 4 6 1016.5 - 0.0
28/04:30am 9.5 7.1 5.3 75 1.9 NNW 7 9 4 5 1016.3 - 0.0
28/04:00am 9.3 6.5 5.1 75 1.9 NNW 9 11 5 6 1016.6 - 0.0
28/03:30am 8.8 5.5 4.6 75 1.9 N 11 13 6 7 1016.4 - 0.0
28/03:00am 12.4 8.9 5.6 63 3.2 WNW 13 15 7 8 1016.8 1016.9 0.0
28/02:30am 12.0 8.8 5.2 63 3.1 WNW 11 17 6 9 1016.9 - 0.0
28/02:00am 10.4 8.0 4.5 67 2.6 NW 6 9 3 5 1016.9 - 0.0
28/01:30am 10.8 8.4 5.1 68 2.6 N 7 9 4 5 1016.7 - 0.0
28/01:00am 9.6 7.7 4.8 72 2.2 W 4 9 2 5 1016.7 - 0.0
28/12:30am 9.2 6.9 4.6 73 2.0 NW 6 9 3 5 1017.0 - 0.0
28/12:00am 9.1 6.8 4.7 74 2.0 NNW 6 11 3 6 1017.2 1017.3 0.0
 
Date/Time
CST
Temp
°C
App
Temp
°C
Dew
Point
Rel
Hum
%
Delta-T
°C
Wind Press
QNH
hPa
Press
MSL
hPa
Rain
since 9 am
mm
Dir
 
Spd
km/h
Gust
km/h
Spd
kts
Gust
kts
27/11:30pm 8.6 6.6 4.4 75 1.9 WNW 4 6 2 3 1017.6 - 0.0
27/11:00pm 10.5 7.2 4.4 66 2.7 NNW 11 13 6 7 1017.9 - 0.0
27/10:30pm 12.3 8.6 4.5 59 3.6 NNW 13 17 7 9 1018.0 - 0.0
27/10:00pm 13.5 9.4 4.6 55 4.1 NNW 15 19 8 10 1018.0 - 0.0
27/09:30pm 12.3 8.4 5.2 62 3.3 NNW 15 17 8 9 1018.2 - 0.0
27/09:00pm 12.1 8.7 5.7 65 3.0 NNW 13 15 7 8 1018.3 1018.4 0.0
27/08:30pm 10.9 7.9 5.9 71 2.3 N 11 13 6 7 1018.2 - 0.0
27/08:00pm 11.0 8.8 6.2 72 2.2 NE 7 9 4 5 1018.3 - 0.0
27/07:30pm 11.6 9.6 6.3 70 2.5 NNE 6 7 3 4 1018.6 - 0.0
27/07:00pm 12.7 10.5 6.1 64 3.1 N 7 11 4 6 1018.6 - 0.0
27/06:30pm 13.8 11.5 5.9 59 3.8 N 7 11 4 6 1018.6 - 0.0
27/06:00pm 14.6 12.0 5.9 56 4.2 N 9 13 5 7 1018.6 1018.7 0.0
27/05:30pm 15.6 12.2 6.1 53 4.6 N 13 19 7 10 1018.5 - 0.0
27/05:00pm 15.8 12.1 6.3 53 4.6 N 15 22 8 12 1018.4 - 0.0
27/04:30pm 16.3 12.7 6.7 53 4.7 N 15 24 8 13 1018.5 - 0.0
27/04:00pm 16.9 12.3 5.8 48 5.4 N 19 33 10 18 1018.4 - 0.0
27/03:30pm 16.9 12.5 6.4 50 5.2 N 19 33 10 18 1018.5 - 0.0
27/03:00pm 17.4 12.4 6.6 49 5.3 NNW 22 37 12 20 1018.7 1018.8 0.0
27/02:30pm 17.2 12.7 7.0 51 5.1 NNW 20 35 11 19 1018.8 - 0.0
27/02:00pm 17.1 12.7 7.5 53 4.8 NNW 20 30 11 16 1019.2 - 0.0
27/01:30pm 16.7 12.2 5.9 49 5.3 NNW 19 26 10 14 1019.6 - 0.0
27/01:00pm 16.8 11.6 5.7 48 5.4 NNW 22 33 12 18 1019.8 - 0.0
27/12:30pm 17.3 11.6 6.8 50 5.2 NNW 26 37 14 20 1020.6 - 0.0
27/12:00pm 16.7 11.3 6.2 50 5.1 NNW 24 35 13 19 1021.2 1021.2 0.0
27/11:30am 16.6 10.5 6.4 51 5.0 NNW 28 43 15 23 1021.8 - 0.0
27/11:00am 15.8 10.3 5.7 51 4.9 NNW 24 33 13 18 1022.0 - 0.0
27/10:30am 14.7 8.8 6.0 56 4.2 NNW 26 33 14 18 1022.3 - 0.0
27/10:00am 14.1 8.3 6.2 59 3.8 NNW 26 35 14 19 1022.6 - 0.0
27/09:30am 13.7 8.2 6.1 60 3.6 NNW 24 32 13 17 1022.9 - 0.0
27/09:00am 13.0 9.7 6.6 65 3.1 N 13 19 7 10 1023.2 1023.2 0.0
27/08:30am 10.0 7.7 5.8 75 1.9 NE 7 11 4 6 1023.3 - 0.0
27/08:00am 9.4 6.7 5.6 77 1.7 NE 9 15 5 8 1023.3 - 0.0
27/07:30am 10.3 6.9 5.9 74 2.0 NNE 13 15 7 8 1023.2 - 0.0
27/07:00am 10.9 6.4 6.1 72 2.2 NNE 19 20 10 11 1023.2 - 0.0
27/06:30am 9.5 5.9 5.1 74 2.0 NNW 13 15 7 8 1023.3 - 0.0
27/06:00am 9.4 4.9 5.9 79 1.6 NW 19 20 10 11 1023.0 1023.0 0.0
27/05:30am 6.5 3.2 4.3 86 0.9 N 11 13 6 7 1022.9 - 0.0
27/05:00am 5.9 2.5 3.9 87 0.8 N 11 15 6 8 1023.0 - 0.0
27/04:30am 5.4 2.3 3.6 88 0.8 N 9 11 5 6 1023.1 - 0.0

Other Formats:

Comma delimited format used in spreadsheet applications
http://www.bom.gov.au/fwo/IDS60801/IDS60801.94814.axf

JavaScript Object Notation format (JSON) in row-major order
http://www.bom.gov.au/fwo/IDS60801/IDS60801.94814.json